createdAt,value
2022-12-18T00:00:29.827Z,25.00
2022-12-18T00:01:34.941Z,21.38
2022-12-18T00:02:37.461Z,21.92
2022-12-18T00:03:42.486Z,22.73
2022-12-18T00:04:45.031Z,18.83
2022-12-18T00:05:51.658Z,22.25
2022-12-18T00:06:54.987Z,21.15
2022-12-18T00:07:59.740Z,21.85
2022-12-18T00:09:04.398Z,20.60
2022-12-18T00:10:07.343Z,22.38
2022-12-18T00:11:12.688Z,21.98
2022-12-18T00:13:18.144Z,20.63
2022-12-18T00:14:20.390Z,18.55
2022-12-18T00:15:26.230Z,20.38
2022-12-18T00:16:29.940Z,20.38
2022-12-18T00:17:33.427Z,19.77
2022-12-18T00:18:36.204Z,18.92
2022-12-18T00:19:38.569Z,17.55
2022-12-18T00:20:41.211Z,18.30
2022-12-18T00:21:44.921Z,18.92
2022-12-18T00:22:47.217Z,17.60
2022-12-18T00:23:51.066Z,20.75
2022-12-18T00:24:53.285Z,20.33
2022-12-18T00:25:55.797Z,21.67
2022-12-18T00:26:57.997Z,23.20
2022-12-18T00:28:00.307Z,22.90
2022-12-18T00:29:07.021Z,25.45
2022-12-18T00:30:09.957Z,23.02
2022-12-18T00:31:19.063Z,23.80
2022-12-18T00:32:21.375Z,22.63
2022-12-18T00:33:23.598Z,23.67
2022-12-18T00:34:25.856Z,24.63
2022-12-18T00:35:28.304Z,26.02
2022-12-18T00:36:34.417Z,30.70
2022-12-18T00:37:39.186Z,26.02
2022-12-18T00:38:45.022Z,24.60
2022-12-18T00:39:49.193Z,27.25
2022-12-18T00:40:51.508Z,27.45
2022-12-18T00:42:12.183Z,29.13
2022-12-18T00:43:17.951Z,26.13
2022-12-18T00:44:20.839Z,28.88
2022-12-18T00:45:34.991Z,28.08
2022-12-18T00:46:38.978Z,27.10
2022-12-18T00:47:47.803Z,28.25
2022-12-18T00:48:50.067Z,27.70
2022-12-18T00:49:52.318Z,23.90
2022-12-18T00:50:54.580Z,29.30
2022-12-18T00:51:56.806Z,25.25
2022-12-18T00:52:59.042Z,25.55
2022-12-18T00:54:01.281Z,22.80
2022-12-18T00:55:06.388Z,23.45
2022-12-18T00:56:08.991Z,24.08
2022-12-18T00:57:11.299Z,23.58
2022-12-18T00:58:15.547Z,25.30
2022-12-18T00:59:18.985Z,22.08
2022-12-18T01:00:21.451Z,24.25
2022-12-18T01:01:26.172Z,24.10
2022-12-18T01:02:28.630Z,23.98
2022-12-18T01:03:39.529Z,23.67
2022-12-18T01:04:43.247Z,23.45
2022-12-18T01:05:45.563Z,22.40
2022-12-18T01:06:47.876Z,26.27
2022-12-18T01:07:50.163Z,23.42
2022-12-18T01:08:52.386Z,22.45
2022-12-18T01:09:54.621Z,23.40
2022-12-18T01:10:56.810Z,24.25
2022-12-18T01:11:59.130Z,25.83
2022-12-18T01:13:01.474Z,23.23
2022-12-18T01:14:07.426Z,27.17
2022-12-18T01:15:12.371Z,23.98
2022-12-18T01:16:16.817Z,25.08
2022-12-18T01:17:21.375Z,24.17
2022-12-18T01:18:26.605Z,24.33
2022-12-18T01:19:28.947Z,24.77
2022-12-18T01:20:31.177Z,24.02
2022-12-18T01:21:33.831Z,26.42
2022-12-18T01:22:39.589Z,22.98
2022-12-18T01:23:43.357Z,23.73
2022-12-18T01:24:45.591Z,23.00
2022-12-18T01:25:47.906Z,25.20
2022-12-18T01:26:50.184Z,22.85
2022-12-18T01:27:52.687Z,22.55
2022-12-18T01:28:55.913Z,24.55
2022-12-18T01:29:59.102Z,23.10
2022-12-18T01:31:17.259Z,22.65
2022-12-18T01:32:20.736Z,23.77
2022-12-18T01:33:22.902Z,23.20
2022-12-18T01:34:28.386Z,25.52
2022-12-18T01:35:32.862Z,22.67
2022-12-18T01:36:37.518Z,25.20
2022-12-18T01:37:39.753Z,24.02
2022-12-18T01:38:42.256Z,25.23
2022-12-18T01:39:44.479Z,23.95
2022-12-18T01:40:46.775Z,24.52
2022-12-18T01:42:07.122Z,25.10
2022-12-18T01:43:17.756Z,24.88
2022-12-18T01:44:50.882Z,25.02
2022-12-18T01:45:53.242Z,26.63
2022-12-18T01:46:55.929Z,25.13
2022-12-18T01:48:04.337Z,25.98
2022-12-18T01:49:09.640Z,23.58
2022-12-18T01:50:20.104Z,24.10
2022-12-18T01:51:22.746Z,24.92
2022-12-18T01:52:27.167Z,27.50
2022-12-18T01:53:30.499Z,25.88
2022-12-18T01:54:42.318Z,28.88
2022-12-18T01:56:53.420Z,26.00
2022-12-18T01:57:59.929Z,26.58
2022-12-18T01:59:09.156Z,28.52
2022-12-18T02:00:17.765Z,28.58
2022-12-18T02:01:24.020Z,28.92
2022-12-18T02:02:30.597Z,27.15
2022-12-18T02:03:33.556Z,27.73
2022-12-18T02:04:36.287Z,26.20
2022-12-18T02:05:48.195Z,25.42
2022-12-18T02:07:02.605Z,27.85
2022-12-18T02:08:19.842Z,29.98
2022-12-18T02:09:31.345Z,25.80
2022-12-18T02:10:47.040Z,26.98
2022-12-18T02:12:13.053Z,23.95
2022-12-18T02:13:15.971Z,30.60
2022-12-18T02:14:23.306Z,24.88
2022-12-18T02:15:37.589Z,24.85
2022-12-18T02:16:51.850Z,22.45
2022-12-18T02:18:22.190Z,25.25
2022-12-18T02:19:28.218Z,24.45
2022-12-18T02:20:40.054Z,25.27
2022-12-18T02:21:56.440Z,24.35
2022-12-18T02:23:33.095Z,25.30
2022-12-18T02:24:46.053Z,23.50
2022-12-18T02:26:09.671Z,21.77
2022-12-18T02:27:13.979Z,22.15
2022-12-18T02:28:24.419Z,23.27
2022-12-18T02:31:20.552Z,23.02
2022-12-18T02:32:28.093Z,21.70
2022-12-18T02:33:33.211Z,25.02
2022-12-18T02:34:39.261Z,23.92
2022-12-18T02:35:45.922Z,22.58
2022-12-18T02:36:51.011Z,22.75
2022-12-18T02:37:55.340Z,22.88
2022-12-18T02:39:00.091Z,22.70
2022-12-18T02:40:05.306Z,22.15
2022-12-18T02:41:14.218Z,23.38
2022-12-18T02:42:18.686Z,24.20
2022-12-18T02:43:21.041Z,21.23
2022-12-18T02:44:23.459Z,23.40
2022-12-18T02:45:25.983Z,21.40
2022-12-18T02:46:31.665Z,23.80
2022-12-18T02:47:40.270Z,21.80
2022-12-18T02:48:43.254Z,20.05
2022-12-18T02:49:56.304Z,24.05
2022-12-18T02:51:24.295Z,21.60
2022-12-18T02:52:55.356Z,22.20
2022-12-18T02:54:07.271Z,22.75
2022-12-18T02:55:15.441Z,21.50
2022-12-18T02:56:27.388Z,20.05
2022-12-18T02:57:43.692Z,20.77
2022-12-18T02:59:07.543Z,20.23
2022-12-18T03:00:29.512Z,20.40
2022-12-18T03:01:40.903Z,18.77
2022-12-18T03:02:52.988Z,19.52
2022-12-18T03:04:22.364Z,18.83
2022-12-18T03:05:34.681Z,20.95
2022-12-18T03:06:50.943Z,18.48
2022-12-18T03:07:59.151Z,20.10
2022-12-18T03:09:10.682Z,20.27
2022-12-18T03:10:18.019Z,20.75
2022-12-18T03:11:41.065Z,19.83
2022-12-18T03:12:54.202Z,17.80
2022-12-18T03:14:02.278Z,20.08
2022-12-18T03:15:17.227Z,19.45
2022-12-18T03:16:32.385Z,19.15
2022-12-18T03:17:36.133Z,20.30
2022-12-18T03:18:55.984Z,19.65
2022-12-18T03:20:06.950Z,18.88
2022-12-18T03:21:12.064Z,18.92
2022-12-18T03:22:17.443Z,16.95
2022-12-18T03:23:28.885Z,20.55
2022-12-18T03:24:33.647Z,18.75
2022-12-18T03:25:40.833Z,20.15
2022-12-18T03:26:47.406Z,18.55
2022-12-18T03:28:00.593Z,18.67
2022-12-18T03:29:11.071Z,15.40
2022-12-18T03:31:46.098Z,16.48
2022-12-18T03:33:06.509Z,17.40
2022-12-18T03:34:19.241Z,17.55
2022-12-18T03:35:28.023Z,17.50
2022-12-18T03:36:30.644Z,16.70
2022-12-18T03:37:33.906Z,17.02
2022-12-18T03:38:39.121Z,19.05
2022-12-18T03:39:42.921Z,16.83
2022-12-18T03:41:06.946Z,18.42
2022-12-18T03:42:18.870Z,16.00
2022-12-18T03:44:02.402Z,20.30
2022-12-18T03:45:10.727Z,16.35
2022-12-18T03:46:48.726Z,16.20
2022-12-18T03:48:03.155Z,15.90
2022-12-18T03:49:15.787Z,16.38
2022-12-18T03:50:27.496Z,16.10
2022-12-18T03:51:53.743Z,19.33
2022-12-18T03:53:07.235Z,14.70
2022-12-18T03:54:11.208Z,17.83
2022-12-18T03:55:20.811Z,14.60
2022-12-18T03:56:34.211Z,15.65
2022-12-18T03:57:38.136Z,15.48
2022-12-18T03:58:43.366Z,15.18
2022-12-18T04:00:01.649Z,15.73
2022-12-18T04:01:19.143Z,15.23
2022-12-18T04:02:24.907Z,15.75
2022-12-18T04:03:29.669Z,15.80
2022-12-18T04:04:34.456Z,15.73
2022-12-18T04:05:40.016Z,16.02
2022-12-18T04:06:44.732Z,16.33
2022-12-18T04:07:53.409Z,14.18
2022-12-18T04:08:59.770Z,14.13
2022-12-18T04:10:04.507Z,14.60
2022-12-18T04:11:07.975Z,13.82
2022-12-18T04:12:12.823Z,16.67
2022-12-18T04:13:23.638Z,15.02
2022-12-18T04:14:26.115Z,14.65
2022-12-18T04:15:35.735Z,15.75
2022-12-18T04:16:38.835Z,14.93
2022-12-18T04:17:49.791Z,13.23
2022-12-18T04:18:55.440Z,13.73
2022-12-18T04:20:00.010Z,14.13
2022-12-18T04:21:05.842Z,14.70
2022-12-18T04:22:11.439Z,16.42
2022-12-18T04:23:18.844Z,14.38
2022-12-18T04:24:21.492Z,13.90
2022-12-18T04:25:37.915Z,13.63
2022-12-18T04:26:43.569Z,16.05
2022-12-18T04:27:50.723Z,16.55
2022-12-18T04:28:53.613Z,15.25
2022-12-18T04:29:56.630Z,15.38
2022-12-18T04:30:59.011Z,15.52
2022-12-18T04:32:01.581Z,15.68
2022-12-18T04:33:10.735Z,16.55
2022-12-18T04:34:13.689Z,16.00
2022-12-18T04:35:23.462Z,15.50
2022-12-18T04:36:27.320Z,13.48
2022-12-18T04:37:30.682Z,14.10
2022-12-18T04:38:49.347Z,14.88
2022-12-18T04:39:53.040Z,15.27
2022-12-18T04:41:05.561Z,12.88
2022-12-18T04:42:07.996Z,14.23
2022-12-18T04:43:11.253Z,13.50
2022-12-18T04:44:16.228Z,14.88
2022-12-18T04:45:19.774Z,15.32
2022-12-18T04:46:22.248Z,14.50
2022-12-18T04:47:25.794Z,13.68
2022-12-18T04:48:30.109Z,12.85
2022-12-18T04:49:32.772Z,11.60
2022-12-18T04:50:35.218Z,13.05
2022-12-18T04:51:47.053Z,14.32
2022-12-18T04:52:50.033Z,13.30
2022-12-18T04:53:52.419Z,14.05
2022-12-18T04:54:57.758Z,16.15
2022-12-18T04:56:05.188Z,13.85
2022-12-18T04:57:12.409Z,14.20
2022-12-18T04:58:25.974Z,15.73
2022-12-18T04:59:32.739Z,12.32
2022-12-18T05:00:35.093Z,13.40
2022-12-18T05:01:37.521Z,14.45
2022-12-18T05:02:40.149Z,13.82
2022-12-18T05:03:43.223Z,14.52
2022-12-18T05:04:46.002Z,12.95
2022-12-18T05:05:51.962Z,12.68
2022-12-18T05:06:54.278Z,12.25
2022-12-18T05:07:56.483Z,12.07
2022-12-18T05:08:59.145Z,11.95
2022-12-18T05:10:02.123Z,12.77
2022-12-18T05:11:12.706Z,15.25
2022-12-18T05:12:15.401Z,14.05
2022-12-18T05:13:17.710Z,11.75
2022-12-18T05:14:21.145Z,13.48
2022-12-18T05:15:23.667Z,12.85
2022-12-18T05:17:57.982Z,11.50
2022-12-18T05:19:00.762Z,12.20
2022-12-18T05:20:03.183Z,13.80
2022-12-18T05:21:05.909Z,11.70
2022-12-18T05:22:08.352Z,12.85
2022-12-18T05:23:10.985Z,13.57
2022-12-18T05:24:13.492Z,12.55
2022-12-18T05:25:19.200Z,13.80
2022-12-18T05:26:21.629Z,12.00
2022-12-18T05:27:24.083Z,13.00
2022-12-18T05:28:28.157Z,11.63
2022-12-18T05:29:30.522Z,13.38
2022-12-18T05:30:33.580Z,12.90
2022-12-18T05:31:39.520Z,12.73
2022-12-18T05:32:47.029Z,12.18
2022-12-18T05:33:49.866Z,14.27
2022-12-18T05:34:52.274Z,13.15
2022-12-18T05:35:56.778Z,13.68
2022-12-18T05:37:01.877Z,12.90
2022-12-18T05:38:16.419Z,11.85
2022-12-18T05:39:25.449Z,12.48
2022-12-18T05:40:27.809Z,13.05
2022-12-18T05:41:30.737Z,11.68
2022-12-18T05:42:33.082Z,11.30
2022-12-18T05:43:38.145Z,13.30
2022-12-18T05:44:40.719Z,11.88
2022-12-18T05:45:43.283Z,15.27
2022-12-18T05:46:47.910Z,10.15
2022-12-18T05:47:50.201Z,10.93
2022-12-18T05:48:55.217Z,9.57
2022-12-18T05:49:57.570Z,12.50
2022-12-18T05:51:07.169Z,11.40
2022-12-18T05:52:10.380Z,11.85
2022-12-18T05:53:13.738Z,11.25
2022-12-18T05:54:16.088Z,11.23
2022-12-18T05:55:20.415Z,11.13
2022-12-18T05:57:37.263Z,11.30
2022-12-18T05:58:43.002Z,12.15
2022-12-18T05:59:45.556Z,10.88
2022-12-18T06:00:47.903Z,9.85
2022-12-18T06:01:50.285Z,10.35
2022-12-18T06:02:52.912Z,10.65
2022-12-18T06:03:56.515Z,11.95
2022-12-18T06:04:58.861Z,9.98
2022-12-18T06:06:04.232Z,10.82
2022-12-18T06:07:06.672Z,12.00
2022-12-18T06:08:09.860Z,10.02
2022-12-18T06:09:12.973Z,10.82
2022-12-18T06:10:15.214Z,11.25
2022-12-18T06:11:21.318Z,11.50
2022-12-18T06:12:25.680Z,11.48
2022-12-18T06:13:30.033Z,10.80
2022-12-18T06:14:32.465Z,10.98
2022-12-18T06:15:37.896Z,12.10
2022-12-18T06:16:40.246Z,10.98
2022-12-18T06:17:42.644Z,10.95
2022-12-18T06:18:48.073Z,8.85
2022-12-18T06:19:50.423Z,10.63
2022-12-18T06:20:59.790Z,9.90
2022-12-18T06:22:02.521Z,9.82
2022-12-18T06:23:07.362Z,11.23
2022-12-18T06:24:17.009Z,10.50
2022-12-18T06:25:19.442Z,9.45
2022-12-18T06:26:27.613Z,11.25
2022-12-18T06:27:30.507Z,10.48
2022-12-18T06:28:32.974Z,10.48
2022-12-18T06:29:35.405Z,9.80
2022-12-18T06:30:37.751Z,11.45
2022-12-18T06:31:40.249Z,10.32
2022-12-18T06:32:45.606Z,11.77
2022-12-18T06:33:51.032Z,10.48
2022-12-18T06:34:54.333Z,10.77
2022-12-18T06:36:05.928Z,9.20
2022-12-18T06:37:08.283Z,11.05
2022-12-18T06:38:13.287Z,10.38
2022-12-18T06:39:18.671Z,10.85
2022-12-18T06:40:23.462Z,9.38
2022-12-18T06:41:26.813Z,9.90
2022-12-18T06:42:30.068Z,11.90
2022-12-18T06:43:32.623Z,11.05
2022-12-18T06:44:35.045Z,12.43
2022-12-18T06:45:37.452Z,9.50
2022-12-18T06:46:39.865Z,11.18
2022-12-18T06:47:42.183Z,12.95
2022-12-18T06:48:48.124Z,9.80
2022-12-18T06:49:50.494Z,10.88
2022-12-18T06:50:52.882Z,12.02
2022-12-18T06:51:55.255Z,11.23
2022-12-18T06:52:57.547Z,10.48
2022-12-18T06:54:03.016Z,9.13
2022-12-18T06:55:05.887Z,10.55
2022-12-18T06:56:10.729Z,11.48
2022-12-18T06:57:13.476Z,10.18
2022-12-18T06:58:18.813Z,12.55
2022-12-18T06:59:21.148Z,9.65
2022-12-18T07:00:23.581Z,11.68
2022-12-18T07:01:25.957Z,10.68
2022-12-18T07:02:28.432Z,11.32
2022-12-18T07:03:30.951Z,9.95
2022-12-18T07:04:33.364Z,10.82
2022-12-18T07:05:35.767Z,9.85
2022-12-18T07:06:38.254Z,11.45
2022-12-18T07:07:40.654Z,11.60
2022-12-18T07:08:43.277Z,12.38
2022-12-18T07:09:45.741Z,10.52
2022-12-18T07:10:55.767Z,11.68
2022-12-18T07:11:58.615Z,10.45
2022-12-18T07:13:01.645Z,11.32
2022-12-18T07:14:03.906Z,11.68
2022-12-18T07:15:06.940Z,11.82
2022-12-18T07:16:24.383Z,13.57
2022-12-18T07:17:30.555Z,11.25
2022-12-18T07:18:32.915Z,10.80
2022-12-18T07:19:35.488Z,13.02
2022-12-18T07:20:38.036Z,10.70
2022-12-18T07:21:40.397Z,11.10
2022-12-18T07:22:42.710Z,12.82
2022-12-18T07:23:49.478Z,12.85
2022-12-18T07:24:51.885Z,11.73
2022-12-18T07:25:54.197Z,11.43
2022-12-18T07:26:56.617Z,10.65
2022-12-18T07:27:59.198Z,10.65
2022-12-18T07:29:03.850Z,12.13
2022-12-18T07:30:07.613Z,11.40
2022-12-18T07:31:17.537Z,10.82
2022-12-18T07:32:29.062Z,11.50
2022-12-18T07:33:32.083Z,10.80
2022-12-18T07:34:44.905Z,14.05
2022-12-18T07:35:47.666Z,12.77
2022-12-18T07:37:06.760Z,12.73
2022-12-18T07:38:09.193Z,10.88
2022-12-18T07:39:14.580Z,12.55
2022-12-18T07:40:17.204Z,13.32
2022-12-18T07:41:20.514Z,11.77
2022-12-18T07:42:31.664Z,12.75
2022-12-18T07:43:35.073Z,15.10
2022-12-18T07:44:39.077Z,11.50
2022-12-18T07:45:41.662Z,14.07
2022-12-18T07:46:43.969Z,14.50
2022-12-18T07:47:46.449Z,14.90
2022-12-18T07:48:50.040Z,14.52
2022-12-18T07:49:52.976Z,12.23
2022-12-18T07:50:58.923Z,14.05
2022-12-18T07:52:02.830Z,15.63
2022-12-18T07:53:06.456Z,14.63
2022-12-18T07:54:11.783Z,12.50
2022-12-18T07:55:14.374Z,15.45
2022-12-18T07:56:31.896Z,13.57
2022-12-18T07:57:49.967Z,14.77
2022-12-18T07:58:55.734Z,13.93
2022-12-18T07:59:58.164Z,12.80
2022-12-18T08:01:08.012Z,12.10
2022-12-18T08:02:10.924Z,16.13
2022-12-18T08:03:14.885Z,14.13
2022-12-18T08:04:17.348Z,12.40
2022-12-18T08:05:20.265Z,13.38
2022-12-18T08:06:24.934Z,13.45
2022-12-18T08:07:27.649Z,14.50
2022-12-18T08:08:31.046Z,12.27
2022-12-18T08:09:34.122Z,13.38
2022-12-18T08:10:36.745Z,14.43
2022-12-18T08:11:39.038Z,13.60
2022-12-18T08:12:41.495Z,13.32
2022-12-18T08:13:43.825Z,13.55
2022-12-18T08:14:46.187Z,14.40
2022-12-18T08:15:57.100Z,12.63
2022-12-18T08:16:59.791Z,13.32
2022-12-18T08:18:02.745Z,14.60
2022-12-18T08:19:05.717Z,14.30
2022-12-18T08:20:09.150Z,14.35
2022-12-18T08:21:24.091Z,12.55
2022-12-18T08:22:26.989Z,15.30
2022-12-18T08:23:29.275Z,15.65
2022-12-18T08:24:31.938Z,15.30
2022-12-18T08:25:35.198Z,14.57
2022-12-18T08:26:37.978Z,17.45
2022-12-18T08:27:40.502Z,15.85
2022-12-18T08:28:43.626Z,20.38
2022-12-18T08:29:45.983Z,17.98
2022-12-18T08:30:53.283Z,17.58
2022-12-18T08:31:55.673Z,18.08
2022-12-18T08:32:58.008Z,17.30
2022-12-18T08:34:00.287Z,19.23
2022-12-18T08:35:02.633Z,16.38
2022-12-18T08:36:05.975Z,17.30
2022-12-18T08:37:08.243Z,19.17
2022-12-18T08:38:10.538Z,16.88
2022-12-18T08:39:15.827Z,16.00
2022-12-18T08:40:18.167Z,15.80
2022-12-18T08:41:20.779Z,16.55
2022-12-18T08:42:41.707Z,18.65
2022-12-18T08:44:03.657Z,15.63
2022-12-18T08:45:09.221Z,17.25
2022-12-18T08:46:12.101Z,19.10
2022-12-18T08:47:18.055Z,16.80
2022-12-18T08:48:22.323Z,18.58
2022-12-18T08:49:24.859Z,18.48
2022-12-18T08:50:28.076Z,18.35
2022-12-18T08:51:32.877Z,17.60
2022-12-18T08:52:35.434Z,20.95
2022-12-18T08:53:39.058Z,20.23
2022-12-18T08:54:41.553Z,17.17
2022-12-18T08:55:48.652Z,20.15
2022-12-18T08:56:52.942Z,18.50
2022-12-18T08:57:55.177Z,17.80
2022-12-18T08:58:57.675Z,17.95
2022-12-18T09:00:00.183Z,17.75
2022-12-18T09:01:06.617Z,16.45
2022-12-18T09:02:11.887Z,17.60
2022-12-18T09:03:15.893Z,17.63
2022-12-18T09:04:18.575Z,15.73
2022-12-18T09:05:20.876Z,17.42
2022-12-18T09:06:24.291Z,17.02
2022-12-18T09:07:26.811Z,16.50
2022-12-18T09:08:29.458Z,17.67
2022-12-18T09:09:31.739Z,16.48
2022-12-18T09:10:37.657Z,16.67
2022-12-18T09:11:44.078Z,15.40
2022-12-18T09:12:46.624Z,15.52
2022-12-18T09:13:51.317Z,16.05
2022-12-18T09:14:53.616Z,18.40
2022-12-18T09:15:56.764Z,17.50
2022-12-18T09:17:01.471Z,18.02
2022-12-18T09:19:27.783Z,17.47
2022-12-18T09:20:30.985Z,18.93
2022-12-18T09:21:37.016Z,18.93
2022-12-18T09:22:39.663Z,19.67
2022-12-18T09:23:42.282Z,18.80
2022-12-18T09:24:44.854Z,18.73
2022-12-18T09:25:49.492Z,17.53
2022-12-18T09:26:57.892Z,15.63
2022-12-18T09:28:01.857Z,18.23
2022-12-18T09:29:05.705Z,17.73
2022-12-18T09:30:08.721Z,16.93
2022-12-18T09:31:16.758Z,17.00
2022-12-18T09:32:22.507Z,17.67
2022-12-18T09:33:25.214Z,17.57
2022-12-18T09:34:27.581Z,18.77
2022-12-18T09:35:29.925Z,17.33
2022-12-18T09:36:33.068Z,15.80
2022-12-18T09:37:35.494Z,19.43
2022-12-18T09:38:38.147Z,17.97
2022-12-18T09:39:40.735Z,18.63
2022-12-18T09:40:46.216Z,19.70
2022-12-18T09:41:54.749Z,18.63
2022-12-18T09:43:01.839Z,19.33
2022-12-18T09:44:29.988Z,18.77
2022-12-18T09:45:53.622Z,19.13
2022-12-18T09:47:05.086Z,20.03
2022-12-18T09:48:14.242Z,19.30
2022-12-18T09:49:21.518Z,17.67
2022-12-18T09:50:38.334Z,18.33
2022-12-18T09:51:51.045Z,17.43
2022-12-18T09:52:58.021Z,16.70
2022-12-18T09:54:08.299Z,18.87
2022-12-18T09:55:10.883Z,19.17
2022-12-18T09:56:23.999Z,17.97
2022-12-18T09:57:26.826Z,16.63
2022-12-18T09:58:41.021Z,18.03
2022-12-18T09:59:51.668Z,18.70
2022-12-18T10:00:56.362Z,19.53
2022-12-18T10:02:04.583Z,19.23
2022-12-18T10:03:15.368Z,18.83
2022-12-18T10:04:19.879Z,18.10
2022-12-18T10:07:31.145Z,18.43
2022-12-18T10:08:59.865Z,20.00
2022-12-18T10:10:25.575Z,19.40
2022-12-18T10:11:49.959Z,21.53
2022-12-18T10:15:38.256Z,19.40
2022-12-18T10:17:25.321Z,18.70
2022-12-18T10:19:05.360Z,19.90
2022-12-18T10:20:33.692Z,18.87
2022-12-18T10:22:07.326Z,22.17
2022-12-18T10:23:15.010Z,21.87
2022-12-18T10:24:43.592Z,21.97
2022-12-18T10:26:00.316Z,19.07
2022-12-18T10:27:15.047Z,20.30
2022-12-18T10:32:27.362Z,20.57
2022-12-18T10:35:43.493Z,20.60
2022-12-18T10:38:24.642Z,24.53
2022-12-18T10:39:29.641Z,21.37
2022-12-18T10:40:32.027Z,22.00
2022-12-18T10:41:34.591Z,23.27
2022-12-18T10:42:36.973Z,24.93
2022-12-18T10:43:40.622Z,21.33
2022-12-18T10:44:42.884Z,22.67
2022-12-18T10:46:18.940Z,24.63
2022-12-18T10:47:21.559Z,24.77
2022-12-18T10:48:25.221Z,22.67
2022-12-18T10:49:30.188Z,21.10
2022-12-18T10:51:09.760Z,21.43
2022-12-18T10:52:19.851Z,23.53
2022-12-18T10:53:28.753Z,21.67
2022-12-18T10:54:34.094Z,20.53
2022-12-18T10:55:39.773Z,23.63
2022-12-18T10:56:43.710Z,25.07
2022-12-18T10:57:46.702Z,22.77
2022-12-18T10:59:05.673Z,20.93
2022-12-18T11:00:28.812Z,20.90
2022-12-18T11:01:57.112Z,22.50
2022-12-18T11:02:59.753Z,21.27
2022-12-18T11:04:08.718Z,20.53
2022-12-18T11:05:32.837Z,23.43
2022-12-18T11:06:35.378Z,19.47
2022-12-18T11:07:52.021Z,18.90
2022-12-18T11:09:08.021Z,20.20
2022-12-18T11:10:20.663Z,18.67
2022-12-18T11:11:24.385Z,19.00
2022-12-18T11:12:29.784Z,19.03
2022-12-18T11:13:33.113Z,21.00
2022-12-18T11:14:52.096Z,18.87
2022-12-18T11:15:55.019Z,20.27
2022-12-18T11:17:25.025Z,20.00
2022-12-18T11:18:34.768Z,21.07
2022-12-18T11:19:39.874Z,19.57
2022-12-18T11:20:42.348Z,20.73
2022-12-18T11:21:44.796Z,18.70
2022-12-18T11:22:58.395Z,19.63
2022-12-18T11:24:03.492Z,18.90
2022-12-18T11:25:36.030Z,19.90
2022-12-18T11:26:40.695Z,20.67
2022-12-18T11:27:49.766Z,17.77
2022-12-18T11:29:11.653Z,21.10
2022-12-18T11:30:22.950Z,20.03
2022-12-18T11:31:29.795Z,18.87
2022-12-18T11:32:37.439Z,19.70
2022-12-18T11:33:58.666Z,17.43
2022-12-18T11:35:14.476Z,22.77
2022-12-18T11:36:18.383Z,22.53
2022-12-18T11:37:21.265Z,20.13
2022-12-18T11:38:27.225Z,20.47
2022-12-18T11:39:38.375Z,19.47
2022-12-18T11:40:46.222Z,20.00
2022-12-18T11:42:13.049Z,22.13
2022-12-18T11:43:43.452Z,21.30
2022-12-18T11:45:04.424Z,21.63
2022-12-18T11:46:17.634Z,21.03
2022-12-18T11:47:45.222Z,22.30
2022-12-18T11:48:58.394Z,20.50
2022-12-18T11:50:03.188Z,22.70
2022-12-18T11:51:11.395Z,20.30
2022-12-18T11:52:45.511Z,20.90
2022-12-18T11:53:47.789Z,23.10
2022-12-18T11:54:53.995Z,20.33
2022-12-18T11:56:06.623Z,21.17
2022-12-18T11:57:46.487Z,18.73
2022-12-18T11:58:56.671Z,23.53
2022-12-18T12:00:20.067Z,20.63
2022-12-18T12:01:44.799Z,22.10
2022-12-18T12:02:52.701Z,23.27
2022-12-18T12:04:07.493Z,22.10
2022-12-18T12:05:19.107Z,20.13
2022-12-18T12:06:40.515Z,22.57
2022-12-18T12:07:56.452Z,22.57
2022-12-18T12:08:59.533Z,18.87
2022-12-18T12:10:35.550Z,20.37
2022-12-18T12:11:55.623Z,19.50
2022-12-18T12:13:19.225Z,20.53
2022-12-18T12:14:58.068Z,18.40
2022-12-18T12:16:14.685Z,20.83
2022-12-18T12:17:34.880Z,21.13
2022-12-18T12:19:04.849Z,21.67
2022-12-18T12:20:21.511Z,22.90
2022-12-18T12:21:43.439Z,20.53
2022-12-18T12:23:06.026Z,20.00
2022-12-18T12:24:23.607Z,21.67
2022-12-18T12:25:44.488Z,21.63
2022-12-18T12:26:59.145Z,21.20
2022-12-18T12:28:13.304Z,20.63
2022-12-18T12:29:26.469Z,22.50
2022-12-18T12:30:57.477Z,20.57
2022-12-18T12:32:10.213Z,20.00
2022-12-18T12:33:35.308Z,21.40
2022-12-18T12:35:31.743Z,21.83
2022-12-18T12:36:51.780Z,18.93
2022-12-18T12:38:28.451Z,19.93
2022-12-18T12:39:35.703Z,19.90
2022-12-18T12:40:53.852Z,17.93
2022-12-18T12:42:25.616Z,20.87
2022-12-18T12:43:49.381Z,21.47
2022-12-18T12:44:58.114Z,19.77
2022-12-18T12:46:08.129Z,22.03
2022-12-18T12:47:20.110Z,20.07
2022-12-18T12:48:57.406Z,19.97
2022-12-18T12:50:03.182Z,19.70
2022-12-18T12:51:29.853Z,20.40
2022-12-18T12:52:37.942Z,19.43
2022-12-18T12:53:42.816Z,19.80
2022-12-18T12:54:48.275Z,20.40
2022-12-18T12:55:53.153Z,22.87
2022-12-18T12:57:14.903Z,23.30
2022-12-18T12:58:33.321Z,20.63
2022-12-18T12:59:43.619Z,20.70
2022-12-18T13:01:05.803Z,20.83
2022-12-18T13:02:30.223Z,20.83
2022-12-18T13:03:58.330Z,18.97
2022-12-18T13:05:47.208Z,20.63
2022-12-18T13:07:22.165Z,20.97
2022-12-18T13:08:31.642Z,22.07
2022-12-18T13:10:12.237Z,20.80
2022-12-18T13:12:00.265Z,19.87
2022-12-18T13:13:07.109Z,17.77
2022-12-18T13:14:40.698Z,19.00
2022-12-18T13:15:48.660Z,19.80
2022-12-18T13:16:51.024Z,19.03
2022-12-18T13:18:14.602Z,18.73
2022-12-18T13:19:26.720Z,18.80
2022-12-18T13:20:37.763Z,18.70
2022-12-18T13:21:43.200Z,17.63
2022-12-18T13:22:49.208Z,18.27
2022-12-18T13:23:52.236Z,19.67
2022-12-18T13:24:54.598Z,21.73
2022-12-18T13:26:18.508Z,18.97
2022-12-18T13:27:46.616Z,19.77
2022-12-18T13:28:54.286Z,19.53
2022-12-18T13:29:56.604Z,19.50
2022-12-18T13:30:59.166Z,17.13
2022-12-18T13:32:02.989Z,20.97
2022-12-18T13:33:17.687Z,17.57
2022-12-18T13:35:43.408Z,18.63
2022-12-18T13:36:46.081Z,19.90
2022-12-18T13:37:54.087Z,20.83
2022-12-18T13:39:16.441Z,18.57
2022-12-18T13:40:40.224Z,19.03
2022-12-18T13:41:43.645Z,19.07
2022-12-18T13:43:04.538Z,19.03
2022-12-18T13:44:38.534Z,20.20
2022-12-18T13:45:47.439Z,22.27
2022-12-18T13:46:51.797Z,18.47
2022-12-18T13:47:54.664Z,19.40
2022-12-18T13:49:15.119Z,19.03
2022-12-18T13:50:29.699Z,19.57
2022-12-18T13:51:36.327Z,19.57
2022-12-18T13:52:40.774Z,19.60
2022-12-18T13:53:53.076Z,18.23
2022-12-18T13:54:58.992Z,17.73
2022-12-18T13:56:02.885Z,18.33
2022-12-18T13:57:07.803Z,19.10
2022-12-18T13:58:13.204Z,19.73
2022-12-18T13:59:23.233Z,22.93
2022-12-18T14:00:31.021Z,19.30
2022-12-18T14:01:33.556Z,19.80
2022-12-18T14:02:36.085Z,19.40
2022-12-18T14:03:38.812Z,21.13
2022-12-18T14:04:41.248Z,20.30
2022-12-18T14:05:50.250Z,18.90
2022-12-18T14:06:58.726Z,20.17
2022-12-18T14:08:13.777Z,20.70
2022-12-18T14:09:26.746Z,21.70
2022-12-18T14:10:48.370Z,20.80
2022-12-18T14:11:52.990Z,20.07
2022-12-18T14:13:00.724Z,20.90
2022-12-18T14:14:09.010Z,20.43
2022-12-18T14:15:24.275Z,19.63
2022-12-18T14:16:28.309Z,20.40
2022-12-18T14:17:33.047Z,18.70
2022-12-18T14:18:47.220Z,21.50
2022-12-18T14:19:52.208Z,17.10
2022-12-18T14:21:03.026Z,18.50
2022-12-18T14:22:05.614Z,19.95
2022-12-18T14:23:27.855Z,18.50
2022-12-18T14:24:31.489Z,18.98
2022-12-18T14:25:33.886Z,20.98
2022-12-18T14:26:36.790Z,18.83
2022-12-18T14:27:47.729Z,19.93
2022-12-18T14:28:50.076Z,19.33
2022-12-18T14:29:52.815Z,18.27
2022-12-18T14:30:55.989Z,19.20
2022-12-18T14:32:18.850Z,16.65
2022-12-18T14:33:24.136Z,17.10
2022-12-18T14:34:27.923Z,17.17
2022-12-18T14:35:30.148Z,16.60
2022-12-18T14:36:32.410Z,15.57
2022-12-18T14:37:34.648Z,15.93
2022-12-18T14:38:41.205Z,15.50
2022-12-18T14:39:54.935Z,15.18
2022-12-18T14:41:06.433Z,15.43
2022-12-18T14:42:12.396Z,15.88
2022-12-18T14:43:14.845Z,14.63
2022-12-18T14:44:17.321Z,15.07
2022-12-18T14:45:43.337Z,16.13
2022-12-18T14:46:47.730Z,15.60
2022-12-18T14:47:50.041Z,14.27
2022-12-18T14:48:52.520Z,14.15
2022-12-18T14:49:54.828Z,15.48
2022-12-18T14:51:03.710Z,15.52
2022-12-18T14:52:07.891Z,13.82
2022-12-18T14:53:33.992Z,15.32
2022-12-18T14:54:38.307Z,14.48
2022-12-18T14:55:48.977Z,15.00
2022-12-18T14:57:03.034Z,15.38
2022-12-18T14:58:05.319Z,16.17
2022-12-18T14:59:23.982Z,15.65
2022-12-18T15:00:29.699Z,13.73
2022-12-18T15:01:38.468Z,16.35
2022-12-18T15:02:41.195Z,17.45
2022-12-18T15:03:45.369Z,14.60
2022-12-18T15:05:00.652Z,17.08